createdAt,value
2018-05-12T00:01:06.989Z,19.03
2018-05-12T00:03:35.872Z,21.10
2018-05-12T00:06:04.846Z,20.23
2018-05-12T00:08:33.711Z,20.10
2018-05-12T00:11:02.597Z,20.73
2018-05-12T00:13:31.585Z,20.43
2018-05-12T00:16:00.575Z,19.87
2018-05-12T00:18:29.449Z,20.37
2018-05-12T00:20:58.343Z,19.93
2018-05-12T00:23:27.232Z,19.33
2018-05-12T00:25:56.109Z,19.87
2018-05-12T00:28:25.013Z,18.37
2018-05-12T00:30:53.923Z,19.53
2018-05-12T00:33:22.785Z,20.50
2018-05-12T00:35:51.677Z,20.53
2018-05-12T00:38:20.581Z,18.93
2018-05-12T00:40:49.501Z,19.43
2018-05-12T00:43:18.365Z,19.63
2018-05-12T00:45:47.244Z,19.17
2018-05-12T00:48:16.127Z,19.53
2018-05-12T00:50:45.009Z,18.70
2018-05-12T00:53:13.938Z,19.50
2018-05-12T00:55:42.797Z,19.30
2018-05-12T00:58:11.653Z,19.47
2018-05-12T01:00:40.556Z,19.20
2018-05-12T01:03:09.440Z,18.63
2018-05-12T01:05:38.305Z,19.17
2018-05-12T01:08:07.205Z,18.60
2018-05-12T01:10:36.085Z,20.70
2018-05-12T01:13:04.976Z,17.70
2018-05-12T01:15:33.970Z,19.27
2018-05-12T01:18:02.857Z,18.20
2018-05-12T01:20:31.757Z,19.10
2018-05-12T01:23:00.632Z,18.17
2018-05-12T01:25:29.513Z,18.17
2018-05-12T01:27:58.393Z,19.33
2018-05-12T01:30:27.305Z,18.67
2018-05-12T01:32:56.188Z,18.87
2018-05-12T01:35:25.057Z,19.07
2018-05-12T01:37:54.030Z,18.90
2018-05-12T01:40:22.916Z,19.17
2018-05-12T01:42:51.982Z,18.37
2018-05-12T01:45:20.975Z,19.20
2018-05-12T01:47:49.887Z,18.93
2018-05-12T01:50:18.744Z,19.47
2018-05-12T01:52:47.620Z,18.53
2018-05-12T01:55:16.536Z,18.97
2018-05-12T01:57:45.405Z,18.17
2018-05-12T02:00:14.289Z,18.37
2018-05-12T02:02:43.172Z,18.70
2018-05-12T02:05:12.057Z,18.20
2018-05-12T02:07:40.913Z,18.30
2018-05-12T02:10:09.794Z,19.23
2018-05-12T02:12:38.677Z,18.43
2018-05-12T02:15:07.672Z,18.20
2018-05-12T02:17:36.572Z,18.77
2018-05-12T02:20:05.469Z,19.13
2018-05-12T02:22:34.349Z,18.37
2018-05-12T02:25:03.345Z,18.50
2018-05-12T02:27:32.231Z,18.33
2018-05-12T02:30:02.238Z,19.10
2018-05-12T02:32:31.121Z,18.07
2018-05-12T02:34:59.986Z,18.67
2018-05-12T02:37:28.865Z,18.50
2018-05-12T02:39:57.745Z,18.23
2018-05-12T02:42:26.629Z,18.37
2018-05-12T02:44:55.496Z,18.87
2018-05-12T02:47:24.383Z,20.07
2018-05-12T02:49:53.269Z,19.47
2018-05-12T02:52:22.171Z,18.73
2018-05-12T02:54:51.065Z,19.10
2018-05-12T02:57:19.955Z,18.63
2018-05-12T02:59:48.869Z,19.90
2018-05-12T03:02:17.753Z,19.43
2018-05-12T03:04:46.695Z,19.77
2018-05-12T03:07:15.526Z,20.20
2018-05-12T03:09:44.389Z,19.33
2018-05-12T03:12:13.281Z,19.40
2018-05-12T03:14:42.163Z,20.00
2018-05-12T03:17:11.012Z,19.77
2018-05-12T03:19:39.893Z,21.20
2018-05-12T03:22:08.793Z,20.50
2018-05-12T03:24:37.677Z,20.43
2018-05-12T03:27:06.662Z,20.87
2018-05-12T03:29:35.544Z,20.90
2018-05-12T03:32:04.433Z,20.93
2018-05-12T03:34:33.289Z,19.23
2018-05-12T03:37:02.164Z,21.03
2018-05-12T03:39:31.045Z,21.17
2018-05-12T03:41:59.897Z,19.93
2018-05-12T03:44:28.787Z,19.60
2018-05-12T03:46:57.676Z,20.07
2018-05-12T03:49:26.570Z,19.30
2018-05-12T03:51:55.473Z,20.73
2018-05-12T03:54:24.353Z,20.03
2018-05-12T03:56:53.208Z,20.20
2018-05-12T03:59:22.113Z,21.20
2018-05-12T04:01:51.013Z,20.43
2018-05-12T04:04:25.740Z,19.73
2018-05-12T04:07:00.690Z,19.97
2018-05-12T04:09:35.391Z,20.70
2018-05-12T04:12:09.988Z,20.07
2018-05-12T04:14:39.039Z,20.40
2018-05-12T04:17:07.925Z,20.13
2018-05-12T04:19:36.833Z,19.00
2018-05-12T04:22:05.743Z,19.60
2018-05-12T04:24:34.603Z,19.90
2018-05-12T04:27:03.453Z,19.77
2018-05-12T04:29:32.522Z,20.10
2018-05-12T04:32:01.622Z,20.13
2018-05-12T04:34:30.873Z,19.90
2018-05-12T04:36:59.776Z,20.47
2018-05-12T04:39:28.665Z,19.07
2018-05-12T04:41:57.523Z,19.83
2018-05-12T04:44:26.695Z,19.57
2018-05-12T04:46:55.558Z,20.43
2018-05-12T04:49:24.419Z,19.93
2018-05-12T04:51:53.331Z,19.87
2018-05-12T04:54:22.429Z,19.70
2018-05-12T04:56:51.284Z,20.53
2018-05-12T04:59:20.193Z,19.73
2018-05-12T05:01:49.061Z,19.50
2018-05-12T05:04:17.956Z,19.53
2018-05-12T05:06:46.857Z,19.03
2018-05-12T05:09:15.777Z,20.97
2018-05-12T05:11:44.664Z,22.83
2018-05-12T05:14:13.548Z,22.57
2018-05-12T05:16:42.409Z,21.33
2018-05-12T05:19:11.307Z,22.37
2018-05-12T05:21:40.186Z,22.83
2018-05-12T05:24:09.125Z,23.70
2018-05-12T05:26:38.029Z,24.00
2018-05-12T05:29:07.023Z,24.37
2018-05-12T05:31:35.890Z,24.83
2018-05-12T05:34:04.798Z,23.77
2018-05-12T05:36:33.673Z,25.80
2018-05-12T05:39:02.553Z,26.40
2018-05-12T05:41:31.782Z,24.93
2018-05-12T05:44:00.644Z,24.93
2018-05-12T05:46:29.497Z,26.37
2018-05-12T05:48:58.398Z,26.27
2018-05-12T05:51:27.341Z,31.63
2018-05-12T05:53:56.335Z,36.60
2018-05-12T05:56:25.208Z,32.27
2018-05-12T05:58:54.060Z,30.33
2018-05-12T06:01:22.917Z,28.83
2018-05-12T06:03:51.797Z,30.13
2018-05-12T06:06:20.649Z,30.03
2018-05-12T06:08:49.529Z,30.60
2018-05-12T06:11:18.440Z,30.00
2018-05-12T06:13:47.341Z,30.63
2018-05-12T06:16:16.226Z,31.33
2018-05-12T06:18:45.129Z,30.93
2018-05-12T06:21:13.997Z,29.87
2018-05-12T06:23:43.033Z,30.13
2018-05-12T06:26:12.026Z,29.20
2018-05-12T06:28:40.880Z,30.87
2018-05-12T06:31:09.761Z,28.77
2018-05-12T06:33:38.619Z,30.90
2018-05-12T06:36:07.490Z,30.30
2018-05-12T06:38:36.369Z,25.93
2018-05-12T06:41:05.232Z,25.93
2018-05-12T06:43:34.113Z,26.00
2018-05-12T06:46:03.000Z,24.37
2018-05-12T06:48:31.852Z,24.77
2018-05-12T06:51:00.739Z,24.40
